Time;durP1;ratioP1;P1;durP2;ratioP2;P2;SDS_P1;SDS_P2;PMS_P1;PMS_P2;Temp;Humidity;BMP_temperature;BMP_pressure;BME280_temperature;BME280_humidity;BME280_pressure;Samples;Min_cycle;Max_cycle;Signal;HPM_P1;HPM_P2
2022/01/21 00:01:08;;;;;;;10.57;5.25;;;;;;;0.13;55.64;99556.44;5026981;28;20088;-74
2022/01/21 00:03:36;;;;;;;11.30;5.20;;;;;;;0.10;55.42;99564.34;5026111;28;20738;-72
2022/01/21 00:06:06;;;;;;;12.43;3.30;;;;;;;0.16;55.31;99569.31;5027188;28;20123;-73
2022/01/21 00:08:33;;;;;;;13.27;4.53;;;;;;;0.10;55.28;99579.94;5027002;28;20469;-74
2022/01/21 00:11:02;;;;;;;11.93;4.03;;;;;;;0.16;54.77;99579.72;5026692;28;20625;-74
2022/01/21 00:13:34;;;;;;;11.55;4.80;;;;;;;0.04;54.96;99575.00;5029268;28;20113;-75
2022/01/21 00:16:03;;;;;;;8.93;3.83;;;;;;;0.14;55.03;99580.66;5009423;28;20111;-75
2022/01/21 00:18:30;;;;;;;10.20;5.43;;;;;;;0.01;55.21;99585.50;5027244;28;20088;-72
2022/01/21 00:31:57;;;;;;;10.40;4.43;;;;;;;0.04;54.92;99592.31;5037291;28;20052;-75
2022/01/21 00:34:23;;;;;;;8.52;4.22;;;;;;;-0.06;54.96;99597.03;5043200;28;20070;-73
2022/01/21 00:36:50;;;;;;;12.00;4.68;;;;;;;-0.02;55.11;99583.00;5045476;28;20101;-74
2022/01/21 00:39:22;;;;;;;10.30;5.75;;;;;;;-0.07;55.20;99592.75;5046204;28;20340;-74
2022/01/21 00:42:00;;;;;;;11.50;5.80;;;;;;;-0.07;54.91;99595.34;5045729;28;20049;-74
2022/01/21 00:44:28;;;;;;;9.85;5.82;;;;;;;-0.05;55.30;99612.56;5046309;28;20049;-76
2022/01/21 00:46:55;;;;;;;10.75;5.30;;;;;;;-0.10;55.22;99613.63;5046796;28;20045;-76
2022/01/21 00:49:23;;;;;;;12.63;6.25;;;;;;;-0.11;55.10;99610.22;5032488;28;20049;-75
2022/01/21 00:51:50;;;;;;;9.68;5.45;;;;;;;-0.05;54.91;99622.09;5033383;28;20152;-77
2022/01/21 00:54:17;;;;;;;8.85;4.63;;;;;;;-0.04;54.93;99621.19;5034342;28;20132;-74
2022/01/21 00:56:44;;;;;;;16.05;4.45;;;;;;;0.00;54.76;99638.34;5031427;28;20065;-75
2022/01/21 00:59:14;;;;;;;12.98;5.28;;;;;;;0.01;54.95;99624.44;5030467;28;20049;-76
2022/01/21 01:01:41;;;;;;;11.60;5.20;;;;;;;0.01;54.77;99629.63;4996714;28;20127;-74
2022/01/21 01:04:08;;;;;;;10.02;3.55;;;;;;;0.15;54.86;99642.94;5033918;28;20145;-72
2022/01/21 01:06:36;;;;;;;9.80;4.78;;;;;;;0.13;54.44;99629.16;5033039;28;20109;-76
2022/01/21 01:09:04;;;;;;;11.65;5.55;;;;;;;0.11;54.49;99636.16;5036486;28;20045;-76
2022/01/21 01:11:46;;;;;;;9.60;5.38;;;;;;;0.08;54.31;99635.44;5032398;28;20045;-76
2022/01/21 01:20:00;;;;;;;13.17;5.80;;;;;;;0.14;54.30;99645.56;5026957;28;20636;-76
2022/01/21 01:22:39;;;;;;;11.07;5.25;;;;;;;0.12;54.36;99652.59;5026540;28;20064;-77
2022/01/21 01:27:54;;;;;;;;;;;;;;;0.27;54.15;99644.19;5025901;28;20516;-75
2022/01/21 01:30:26;;;;;;;11.30;4.75;;;;;;;0.10;53.95;99644.00;5026943;28;19975;-71
2022/01/21 01:32:56;;;;;;;8.20;4.32;;;;;;;0.10;54.26;99660.44;5027141;28;20050;-75
2022/01/21 01:35:25;;;;;;;8.27;4.63;;;;;;;0.12;54.19;99643.03;5008429;28;20094;-76
2022/01/21 01:40:44;;;;;;;12.52;4.35;;;;;;;0.14;54.01;99640.38;4986659;28;20058;-75
2022/01/21 01:51:29;;;;;;;10.57;4.82;;;;;;;0.29;53.44;99639.78;4985700;28;20132;-75
2022/01/21 01:53:59;;;;;;;10.40;5.55;;;;;;;0.26;53.10;99628.69;4986567;28;20060;-78
2022/01/21 01:56:30;;;;;;;7.97;3.70;;;;;;;0.32;53.22;99638.81;4986465;28;20659;-77
2022/01/21 01:58:58;;;;;;;10.32;4.88;;;;;;;0.32;53.41;99646.59;4984249;28;20688;-78
2022/01/21 02:01:31;;;;;;;11.15;3.47;;;;;;;0.37;53.18;99632.50;4985903;28;20046;-76
2022/01/21 02:03:58;;;;;;;10.38;3.83;;;;;;;0.36;53.02;99636.03;4984773;28;20133;-76
2022/01/21 02:06:25;;;;;;;8.85;4.45;;;;;;;0.30;52.56;99620.69;4985924;28;20125;-78
2022/01/21 02:08:52;;;;;;;9.18;4.78;;;;;;;0.24;53.04;99630.50;4984377;28;20130;-77
2022/01/21 02:11:19;;;;;;;9.73;4.47;;;;;;;0.28;52.80;99634.66;4977812;28;20051;-80
2022/01/21 02:13:51;;;;;;;9.48;3.90;;;;;;;0.40;52.74;99641.09;4967683;28;20506;-76
2022/01/21 02:16:34;;;;;;;11.02;4.30;;;;;;;0.33;52.75;99630.94;4968110;28;20078;-76
2022/01/21 02:21:52;;;;;;;8.98;3.50;;;;;;;0.43;52.37;99634.00;5008711;28;20145;-77
2022/01/21 02:24:34;;;;;;;7.15;4.28;;;;;;;0.32;52.16;99620.63;4991469;28;20613;-78
2022/01/21 02:27:02;;;;;;;7.10;3.92;;;;;;;0.26;52.26;99637.31;5008184;28;20077;-74
2022/01/21 02:29:42;;;;;;;8.38;4.25;;;;;;;0.33;52.19;99636.16;5007280;28;20081;-75
2022/01/21 02:32:09;;;;;;;7.38;5.00;;;;;;;0.36;52.31;99637.75;5007774;28;20136;-76
2022/01/21 02:34:37;;;;;;;5.28;2.83;;;;;;;0.51;52.11;99629.38;5007763;28;20077;-78
2022/01/21 02:37:06;;;;;;;4.78;2.75;;;;;;;0.44;51.82;99627.91;5007938;28;20065;-77
2022/01/21 02:39:34;;;;;;;10.90;4.32;;;;;;;0.39;52.08;99629.84;5006407;28;20141;-76
2022/01/21 02:42:01;;;;;;;9.32;4.13;;;;;;;0.45;51.64;99639.16;5006278;28;20430;-74
2022/01/21 02:44:28;;;;;;;7.85;4.28;;;;;;;0.37;52.12;99629.91;5006967;28;20216;-74
2022/01/21 02:46:58;;;;;;;7.50;3.83;;;;;;;0.37;51.69;99631.69;5006400;28;20046;-74
2022/01/21 02:49:26;;;;;;;3.15;1.92;;;;;;;0.44;51.72;99642.69;5007205;28;20136;-75
2022/01/21 02:51:54;;;;;;;6.53;1.98;;;;;;;0.51;51.64;99644.13;5006120;28;20058;-76
2022/01/21 02:54:23;;;;;;;13.38;5.22;;;;;;;0.49;51.62;99657.16;5007197;28;20049;-76
2022/01/21 02:56:51;;;;;;;5.43;2.60;;;;;;;0.51;51.83;99650.16;5005696;28;20129;-75
2022/01/21 02:59:18;;;;;;;5.53;1.20;;;;;;;0.51;51.78;99621.56;5007441;28;20060;-77
2022/01/21 03:01:45;;;;;;;6.93;2.95;;;;;;;0.50;51.25;99645.84;5006617;28;20050;-77
2022/01/21 03:04:21;;;;;;;6.50;2.75;;;;;;;0.58;51.54;99629.97;5007418;28;20117;-78
2022/01/21 03:06:48;;;;;;;9.55;2.75;;;;;;;0.62;51.10;99635.88;5009020;28;20052;-75
2022/01/21 03:09:15;;;;;;;6.88;2.78;;;;;;;0.64;51.17;99623.66;5007425;28;20607;-76
2022/01/21 03:11:44;;;;;;;6.95;2.13;;;;;;;0.66;51.66;99640.03;5006791;28;20155;-77
2022/01/21 03:14:11;;;;;;;11.52;5.05;;;;;;;0.56;51.26;99645.63;5008166;28;20049;-76
2022/01/21 03:16:38;;;;;;;4.70;2.88;;;;;;;0.52;51.15;99638.00;5006129;28;20160;-74
2022/01/21 03:19:05;;;;;;;9.20;3.85;;;;;;;0.44;51.28;99635.72;5006035;28;20611;-76
2022/01/21 03:21:32;;;;;;;6.45;2.22;;;;;;;0.50;51.23;99648.44;5008354;28;20052;-75
2022/01/21 03:23:59;;;;;;;12.52;2.55;;;;;;;0.48;51.03;99645.06;5009679;28;20046;-76
2022/01/21 03:26:28;;;;;;;12.30;2.60;;;;;;;0.50;51.49;99645.00;5009608;28;20377;-75
2022/01/21 03:28:58;;;;;;;6.10;3.15;;;;;;;0.35;51.07;99644.72;4956695;28;20499;-77
2022/01/21 03:31:26;;;;;;;6.78;2.70;;;;;;;0.45;50.85;99649.53;5009431;28;20136;-76
2022/01/21 03:33:54;;;;;;;8.00;2.72;;;;;;;0.42;51.23;99634.94;5009573;28;20133;-77
2022/01/21 03:36:22;;;;;;;8.40;3.60;;;;;;;0.33;51.07;99645.72;5010550;28;20132;-73
2022/01/21 03:38:49;;;;;;;6.80;3.70;;;;;;;0.42;51.60;99637.53;5010528;28;20046;-73
2022/01/21 03:41:16;;;;;;;8.55;3.13;;;;;;;0.40;51.53;99644.56;5011069;28;20105;-72
2022/01/21 03:43:43;;;;;;;9.70;3.35;;;;;;;0.39;51.33;99650.63;5009648;28;20100;-74
2022/01/21 03:46:13;;;;;;;6.20;2.97;;;;;;;0.45;51.21;99646.94;5009483;28;20058;-74
2022/01/21 03:48:40;;;;;;;4.30;2.60;;;;;;;0.37;51.55;99649.88;4992883;28;20136;-74
2022/01/21 03:51:08;;;;;;;5.45;2.88;;;;;;;0.47;51.70;99658.97;5008679;28;20054;-74
2022/01/21 03:53:35;;;;;;;8.18;4.30;;;;;;;0.43;51.62;99641.81;5010777;28;20057;-74
2022/01/21 03:56:02;;;;;;;5.32;3.15;;;;;;;0.41;51.78;99655.78;5010740;28;20115;-77
2022/01/21 03:58:29;;;;;;;7.75;2.20;;;;;;;0.38;52.02;99673.19;5007537;28;20498;-77
2022/01/21 04:00:57;;;;;;;7.15;2.75;;;;;;;0.41;51.85;99653.19;5009842;28;20111;-76
2022/01/21 04:03:26;;;;;;;7.43;2.53;;;;;;;0.42;52.04;99665.28;5009777;28;20085;-77
2022/01/21 04:05:54;;;;;;;3.97;2.75;;;;;;;0.37;51.81;99660.25;5008436;28;20700;-78
2022/01/21 04:08:22;;;;;;;7.90;2.90;;;;;;;0.40;51.93;99648.88;5010069;28;20042;-77
2022/01/21 04:10:49;;;;;;;5.78;2.22;;;;;;;0.44;52.23;99661.69;5009697;28;20054;-78
2022/01/21 04:13:18;;;;;;;6.20;3.17;;;;;;;0.43;51.87;99653.97;5009349;28;20046;-77
2022/01/21 04:15:47;;;;;;;3.47;2.30;;;;;;;0.43;52.16;99669.53;5009008;28;20116;-80
2022/01/21 04:18:15;;;;;;;13.98;3.22;;;;;;;0.45;52.30;99680.72;5009386;28;20121;-78
2022/01/21 04:20:46;;;;;;;6.00;2.58;;;;;;;0.56;52.17;99679.41;5007945;28;20076;-76
2022/01/21 04:23:16;;;;;;;3.83;2.28;;;;;;;0.45;52.28;99675.53;5012413;28;20103;-79
2022/01/21 04:25:44;;;;;;;6.35;2.75;;;;;;;0.48;52.11;99681.44;5012154;28;20079;-79
2022/01/21 04:28:12;;;;;;;6.90;2.65;;;;;;;0.49;52.40;99671.91;5009435;28;20060;-80
2022/01/21 04:30:40;;;;;;;3.33;1.92;;;;;;;0.55;52.08;99666.47;5010662;28;20140;-80
2022/01/21 04:33:08;;;;;;;5.82;2.47;;;;;;;0.63;51.93;99671.34;5010222;28;20057;-80
2022/01/21 04:35:37;;;;;;;11.00;2.65;;;;;;;0.52;52.09;99667.44;5011534;28;20532;-77
2022/01/21 04:38:09;;;;;;;7.88;4.13;;;;;;;0.44;52.42;99645.28;5013110;28;20045;-79
2022/01/21 04:40:43;;;;;;;7.18;2.40;;;;;;;0.33;52.64;99669.91;5009991;28;20143;-78
2022/01/21 04:48:39;;;;;;;6.13;1.90;;;;;;;0.40;52.36;99664.47;5011076;28;20053;-77
2022/01/21 04:53:50;;;;;;;5.93;2.33;;;;;;;0.36;52.92;99674.13;5011139;28;20144;-76
2022/01/21 04:56:17;;;;;;;11.57;3.83;;;;;;;0.30;53.03;99672.63;5009889;28;20041;-77
2022/01/21 04:58:45;;;;;;;8.27;3.00;;;;;;;0.32;52.99;99675.16;5010084;28;20068;-75
2022/01/21 05:01:13;;;;;;;8.15;3.08;;;;;;;0.35;52.93;99669.88;5009936;28;20148;-77
2022/01/21 05:03:44;;;;;;;6.47;3.22;;;;;;;0.31;53.29;99666.53;5009273;28;20474;-77
2022/01/21 05:06:11;;;;;;;6.25;3.72;;;;;;;0.30;53.17;99687.38;5009827;28;20383;-78
2022/01/21 05:08:45;;;;;;;4.35;1.75;;;;;;;0.42;53.08;99694.69;5008685;28;20069;-77
2022/01/21 05:11:16;;;;;;;7.78;3.08;;;;;;;0.39;53.16;99689.59;5009843;28;20050;-78
2022/01/21 05:13:51;;;;;;;7.78;3.00;;;;;;;0.40;53.20;99683.53;5009289;28;20081;-79
2022/01/21 05:16:30;;;;;;;9.88;3.25;;;;;;;0.38;53.27;99678.38;5007667;28;20050;-76
2022/01/21 05:18:59;;;;;;;7.50;2.72;;;;;;;0.51;52.88;99688.28;5008549;28;20085;-78
2022/01/21 05:21:27;;;;;;;5.80;3.53;;;;;;;0.53;53.03;99695.09;5008750;28;20108;-76
2022/01/21 05:23:54;;;;;;;9.05;3.75;;;;;;;0.53;53.12;99692.50;5008172;28;20065;-76
2022/01/21 05:26:24;;;;;;;6.50;3.75;;;;;;;0.57;52.86;99688.03;4991176;28;20050;-74
2022/01/21 05:28:51;;;;;;;7.63;4.00;;;;;;;0.50;53.01;99684.81;5008317;28;20137;-75
2022/01/21 05:31:18;;;;;;;5.38;2.67;;;;;;;0.61;53.18;99667.97;5008585;28;20056;-78
2022/01/21 05:33:45;;;;;;;8.30;3.63;;;;;;;0.56;53.23;99684.59;4990530;28;20070;-78
2022/01/21 05:36:12;;;;;;;7.60;4.57;;;;;;;0.54;53.13;99682.94;5008373;28;20890;-79
2022/01/21 05:38:39;;;;;;;8.65;3.97;;;;;;;0.60;53.15;99693.09;5007169;28;20133;-74
2022/01/21 05:41:06;;;;;;;9.98;4.57;;;;;;;0.58;53.34;99687.13;5007084;28;20450;-76
2022/01/21 05:43:35;;;;;;;10.13;4.55;;;;;;;0.57;53.42;99694.06;5007492;28;20421;-75
2022/01/21 05:48:47;;;;;;;12.00;3.80;;;;;;;0.68;53.22;99691.03;5006527;28;20057;-77
2022/01/21 05:51:16;;;;;;;4.57;2.17;;;;;;;0.71;53.24;99696.09;5007727;28;20136;-77
2022/01/21 05:53:43;;;;;;;10.52;3.72;;;;;;;0.70;52.93;99701.38;5006887;28;20061;-76
2022/01/21 05:56:11;;;;;;;11.02;4.85;;;;;;;0.74;52.93;99697.75;5006991;28;20088;-76
2022/01/21 05:58:40;;;;;;;10.73;5.03;;;;;;;0.79;52.99;99706.19;5005444;28;20106;-79
2022/01/21 06:01:07;;;;;;;11.88;5.68;;;;;;;0.76;53.00;99698.53;5008861;28;20145;-82
2022/01/21 06:03:35;;;;;;;18.08;8.65;;;;;;;0.81;52.90;99707.00;4974514;28;20092;-77
2022/01/21 06:06:02;;;;;;;9.43;4.10;;;;;;;0.82;52.58;99700.88;5007151;28;20656;-75
2022/01/21 06:08:30;;;;;;;9.57;5.28;;;;;;;0.87;52.89;99714.53;5009020;28;20042;-84
2022/01/21 06:10:56;;;;;;;7.68;4.70;;;;;;;0.85;52.88;99715.50;5009224;28;20108;-80
2022/01/21 06:13:24;;;;;;;10.48;3.83;;;;;;;0.86;52.78;99712.00;5007962;28;20637;-74
2022/01/21 06:15:56;;;;;;;10.98;5.53;;;;;;;0.86;52.90;99718.03;5005974;28;20046;-77
2022/01/21 06:18:25;;;;;;;8.05;3.97;;;;;;;0.88;52.96;99726.63;5006388;28;20046;-77
2022/01/21 06:20:53;;;;;;;17.25;6.40;;;;;;;0.95;52.95;99730.66;5004757;28;20089;-75
2022/01/21 06:23:20;;;;;;;10.50;5.03;;;;;;;0.88;52.92;99702.38;5007039;28;20042;-82
2022/01/21 06:25:47;;;;;;;10.38;3.75;;;;;;;0.87;53.00;99722.31;4988847;28;20104;-73
2022/01/21 06:28:15;;;;;;;13.32;4.97;;;;;;;0.90;53.23;99719.63;5004064;28;20048;-73
2022/01/21 06:30:43;;;;;;;10.35;5.80;;;;;;;0.97;52.97;99727.16;5007755;28;20133;-74
2022/01/21 06:33:13;;;;;;;9.18;3.80;;;;;;;0.95;52.94;99715.06;5027104;28;20396;-75
2022/01/21 06:35:40;;;;;;;6.85;3.03;;;;;;;0.91;53.16;99728.25;5044066;28;20060;-74
2022/01/21 06:38:07;;;;;;;13.18;5.13;;;;;;;0.90;53.21;99724.81;5043835;28;20707;-75
2022/01/21 06:40:34;;;;;;;14.93;5.22;;;;;;;0.82;53.36;99719.06;5043490;28;20060;-75
2022/01/21 06:43:03;;;;;;;13.32;5.22;;;;;;;0.84;53.23;99734.59;5044449;28;20049;-78
2022/01/21 06:45:30;;;;;;;16.73;7.47;;;;;;;0.80;53.58;99731.28;5046891;28;20052;-74
2022/01/21 06:47:58;;;;;;;11.18;5.82;;;;;;;0.73;53.70;99738.47;5046845;28;20144;-74
2022/01/21 06:50:28;;;;;;;11.18;4.50;;;;;;;0.84;53.37;99735.44;5053373;28;20045;-74
2022/01/21 06:52:55;;;;;;;7.80;5.40;;;;;;;0.78;53.50;99740.91;5059993;28;20072;-77
2022/01/21 06:55:23;;;;;;;10.75;4.45;;;;;;;0.81;53.58;99743.38;5050140;28;20084;-78
2022/01/21 06:57:50;;;;;;;8.05;3.63;;;;;;;0.84;53.20;99750.22;5041449;28;21378;-75
2022/01/21 07:00:20;;;;;;;9.48;4.28;;;;;;;0.81;53.62;99755.53;5013887;28;20095;-72
2022/01/21 07:02:47;;;;;;;10.63;5.93;;;;;;;0.78;53.70;99732.28;5025769;28;20049;-72
2022/01/21 07:05:14;;;;;;;7.28;3.63;;;;;;;0.84;53.30;99758.84;5027980;28;20433;-73
2022/01/21 07:07:43;;;;;;;17.70;7.05;;;;;;;0.81;53.36;99748.59;5031963;28;20148;-74
2022/01/21 07:10:14;;;;;;;13.27;5.20;;;;;;;0.91;53.41;99757.69;5036845;28;20108;-75
2022/01/21 07:12:42;;;;;;;12.48;6.80;;;;;;;0.89;53.17;99753.47;5035001;28;20053;-73
2022/01/21 07:15:10;;;;;;;11.75;4.70;;;;;;;1.00;53.05;99760.84;5034405;28;20172;-71
2022/01/21 07:17:37;;;;;;;12.20;4.75;;;;;;;1.04;52.88;99762.38;5031921;28;20518;-71
2022/01/21 07:20:06;;;;;;;13.38;5.55;;;;;;;1.15;52.72;99765.38;5030982;28;20049;-73
2022/01/21 07:22:33;;;;;;;10.65;5.07;;;;;;;1.23;52.41;99778.94;5000479;28;20131;-71
2022/01/21 07:25:03;;;;;;;8.02;5.10;;;;;;;1.31;52.60;99766.47;5042008;28;20067;-77
2022/01/21 07:27:30;;;;;;;12.10;5.38;;;;;;;1.42;52.08;99783.34;5035854;28;20051;-76
2022/01/21 07:29:58;;;;;;;9.05;3.22;;;;;;;1.52;51.95;99784.66;5025297;28;20159;-77
2022/01/21 07:32:26;;;;;;;8.40;4.18;;;;;;;1.44;51.78;99782.41;5047554;28;20041;-74
2022/01/21 07:34:53;;;;;;;14.13;5.90;;;;;;;1.51;51.88;99782.97;5041800;28;20140;-76
2022/01/21 07:37:20;;;;;;;12.35;5.07;;;;;;;1.57;51.55;99784.44;5042324;28;20105;-77
2022/01/21 07:39:48;;;;;;;9.05;4.60;;;;;;;1.71;51.38;99793.38;5034268;28;20137;-79
2022/01/21 07:42:16;;;;;;;12.60;4.22;;;;;;;1.80;50.98;99789.53;5044830;28;20060;-81
2022/01/21 07:44:43;;;;;;;10.80;5.00;;;;;;;1.79;50.74;99787.00;5049127;28;20075;-77
2022/01/21 07:47:10;;;;;;;14.68;7.72;;;;;;;1.80;50.71;99797.34;5057034;28;20485;-74
2022/01/21 07:49:38;;;;;;;14.55;5.45;;;;;;;1.86;51.05;99801.44;5057024;28;20083;-77
2022/01/21 07:52:06;;;;;;;12.43;6.28;;;;;;;1.87;50.89;99790.09;5059136;28;20045;-77
2022/01/21 07:54:35;;;;;;;7.60;4.38;;;;;;;1.87;50.71;99795.31;5056550;28;20045;-80
2022/01/21 07:57:03;;;;;;;8.85;4.78;;;;;;;1.91;50.93;99809.91;5042774;28;20206;-79
2022/01/21 07:59:31;;;;;;;10.05;4.72;;;;;;;1.98;50.54;99807.84;5046392;28;20054;-75
2022/01/21 08:01:59;;;;;;;9.45;3.38;;;;;;;2.00;50.26;99814.69;5046979;28;20409;-79
2022/01/21 08:04:26;;;;;;;7.15;4.60;;;;;;;2.02;50.37;99805.06;5040009;28;20044;-77
2022/01/21 08:06:54;;;;;;;7.38;4.82;;;;;;;2.05;50.27;99793.63;5058211;28;20064;-78
2022/01/21 08:09:24;;;;;;;10.05;4.70;;;;;;;2.04;50.11;99798.00;5057121;28;20148;-83
2022/01/21 08:11:52;;;;;;;13.07;5.30;;;;;;;2.01;50.07;99807.72;5051574;28;20033;-78
2022/01/21 08:14:21;;;;;;;7.68;4.03;;;;;;;2.02;49.89;99799.00;5039135;28;20036;-82
2022/01/21 08:16:51;;;;;;;11.05;4.75;;;;;;;2.04;49.90;99802.38;5056611;28;20212;-78
2022/01/21 08:19:20;;;;;;;12.57;4.68;;;;;;;1.96;50.08;99799.25;5056237;28;20097;-76
2022/01/21 08:21:53;;;;;;;9.93;4.70;;;;;;;2.03;50.36;99816.31;5053971;28;20037;-76
2022/01/21 08:24:20;;;;;;;7.88;4.13;;;;;;;2.04;50.14;99805.00;5041709;28;20188;-77
2022/01/21 08:26:47;;;;;;;9.00;4.65;;;;;;;2.09;49.98;99808.25;5035008;28;20077;-78
2022/01/21 08:29:14;;;;;;;12.10;6.22;;;;;;;2.03;50.00;99809.34;5030670;28;20080;-78
2022/01/21 08:31:41;;;;;;;6.93;4.20;;;;;;;2.02;50.30;99806.81;5042835;28;20079;-77
2022/01/21 08:34:11;;;;;;;10.77;5.32;;;;;;;2.06;50.31;99829.22;5048753;28;20053;-76
2022/01/21 08:36:40;;;;;;;9.48;4.93;;;;;;;2.02;50.40;99822.44;5039566;28;20759;-78
2022/01/21 08:39:13;;;;;;;7.90;4.32;;;;;;;2.04;50.99;99844.91;5017655;28;20132;-81
2022/01/21 08:41:43;;;;;;;11.43;4.28;;;;;;;1.98;51.30;99845.19;4998777;28;20822;-80
2022/01/21 08:44:11;;;;;;;11.95;5.20;;;;;;;2.00;51.42;99842.47;5032166;28;20194;-81
2022/01/21 08:46:38;;;;;;;9.63;5.28;;;;;;;1.88;51.86;99834.31;5035818;28;20049;-79
2022/01/21 08:49:08;;;;;;;11.27;4.88;;;;;;;1.83;52.02;99835.41;5027256;28;20077;-76
2022/01/21 08:51:47;;;;;;;13.52;5.22;;;;;;;1.79;52.08;99854.69;5025045;28;20558;-74
2022/01/21 08:54:15;;;;;;;10.63;5.25;;;;;;;1.69;52.28;99849.00;5025770;28;20203;-76
2022/01/21 08:56:42;;;;;;;11.35;5.03;;;;;;;1.70;52.57;99850.72;5023414;28;20666;-78
2022/01/21 08:59:13;;;;;;;10.88;4.57;;;;;;;1.79;52.42;99858.13;5031645;28;20583;-80
2022/01/21 09:01:40;;;;;;;16.38;6.78;;;;;;;1.90;52.28;99855.06;5011306;28;20049;-77
2022/01/21 09:04:08;;;;;;;12.15;5.50;;;;;;;1.93;51.59;99852.34;5008808;28;20206;-76
2022/01/21 09:06:37;;;;;;;10.70;4.50;;;;;;;1.89;52.15;99863.78;5022699;28;20072;-76
2022/01/21 09:09:05;;;;;;;10.02;5.43;;;;;;;1.99;52.00;99867.69;5023612;28;20050;-77
2022/01/21 09:11:32;;;;;;;11.35;3.95;;;;;;;2.10;51.87;99864.63;5004898;28;20681;-76
2022/01/21 09:14:00;;;;;;;11.50;4.78;;;;;;;2.21;51.60;99865.00;5024362;28;20568;-76
2022/01/21 09:16:28;;;;;;;9.40;3.80;;;;;;;2.29;51.21;99869.88;5023254;28;20132;-76
2022/01/21 09:18:57;;;;;;;10.45;5.03;;;;;;;2.40;51.47;99870.25;5022013;28;20042;-76
2022/01/21 09:21:27;;;;;;;14.25;5.53;;;;;;;2.25;51.21;99863.97;5024646;28;20049;-78
2022/01/21 09:23:57;;;;;;;11.70;5.20;;;;;;;2.24;51.35;99861.41;5024136;28;20099;-78
2022/01/21 09:26:26;;;;;;;11.68;6.60;;;;;;;2.09;51.47;99853.38;5023538;28;20136;-78
2022/01/21 09:28:54;;;;;;;12.23;5.97;;;;;;;2.00;51.88;99858.13;5022565;28;20049;-75
2022/01/21 09:31:23;;;;;;;15.18;5.85;;;;;;;2.13;51.89;99861.06;5026732;28;20124;-75
2022/01/21 09:33:51;;;;;;;10.25;4.40;;;;;;;2.32;51.68;99859.28;5023894;28;20722;-77
2022/01/21 09:36:19;;;;;;;12.43;5.07;;;;;;;2.31;51.57;99860.22;5022410;28;20081;-77
2022/01/21 09:38:49;;;;;;;12.40;5.32;;;;;;;2.43;51.11;99866.63;5023939;28;20053;-74
2022/01/21 09:41:19;;;;;;;14.93;7.45;;;;;;;2.36;51.19;99854.78;5022418;28;20093;-76
2022/01/21 09:43:47;;;;;;;13.65;6.43;;;;;;;2.28;51.60;99858.59;5004417;28;20152;-76
2022/01/21 09:46:16;;;;;;;15.70;6.47;;;;;;;2.30;51.35;99861.13;5023722;28;20472;-77
2022/01/21 09:49:05;;;;;;;13.38;5.15;;;;;;;2.30;51.55;99861.13;5028499;28;20105;-75
2022/01/21 09:51:32;;;;;;;11.48;4.80;;;;;;;2.49;51.12;99859.41;5027098;28;20052;-76
2022/01/21 09:54:03;;;;;;;13.80;6.15;;;;;;;2.39;50.69;99839.88;5022731;28;20095;-80
2022/01/21 09:56:34;;;;;;;10.07;4.85;;;;;;;2.42;50.65;99837.13;5005524;28;20107;-77
2022/01/21 09:59:02;;;;;;;12.60;7.15;;;;;;;2.38;50.83;99843.41;5022230;28;20357;-77
2022/01/21 10:01:29;;;;;;;11.13;6.10;;;;;;;2.34;50.53;99836.66;5027055;28;20109;-76
2022/01/21 10:03:57;;;;;;;17.05;7.53;;;;;;;2.24;50.49;99844.00;5023085;28;20053;-79
2022/01/21 10:06:28;;;;;;;13.82;7.22;;;;;;;2.27;51.11;99833.47;5007202;28;20537;-76
2022/01/21 10:08:57;;;;;;;17.30;5.63;;;;;;;2.28;51.08;99848.16;5025286;28;20088;-76
2022/01/21 10:11:29;;;;;;;11.25;5.45;;;;;;;2.39;50.72;99844.25;4990305;28;20044;-76
2022/01/21 10:13:59;;;;;;;16.23;7.82;;;;;;;2.44;50.61;99848.31;5026072;28;20056;-75
2022/01/21 10:16:28;;;;;;;15.10;7.40;;;;;;;2.49;50.60;99850.75;5011121;28;20090;-79
2022/01/21 10:19:08;;;;;;;14.48;6.85;;;;;;;2.39;50.46;99842.47;5015802;28;20546;-79
2022/01/21 10:21:39;;;;;;;16.63;7.20;;;;;;;2.40;50.35;99852.00;4992745;28;20091;-82
2022/01/21 10:24:10;;;;;;;11.63;6.30;;;;;;;2.41;50.37;99848.50;5027519;28;20046;-78
2022/01/21 10:26:48;;;;;;;11.95;7.15;;;;;;;2.49;50.62;99854.19;5012074;28;20076;-74
2022/01/21 10:29:17;;;;;;;12.88;5.63;;;;;;;2.55;49.81;99849.59;5028863;28;20085;-76
2022/01/21 10:31:56;;;;;;;17.88;10.23;;;;;;;2.52;49.52;99847.13;5039142;28;20042;-77
2022/01/21 10:34:31;;;;;;;19.08;7.75;;;;;;;2.53;49.21;99849.69;5042418;28;20068;-77
2022/01/21 10:37:05;;;;;;;18.40;10.65;;;;;;;2.46;48.92;99845.66;5039026;28;20037;-79
2022/01/21 10:39:34;;;;;;;15.57;8.02;;;;;;;2.51;48.76;99854.13;5042236;28;20045;-77
2022/01/21 10:42:02;;;;;;;16.00;9.52;;;;;;;2.63;48.85;99858.78;5038611;28;20114;-75
2022/01/21 10:44:32;;;;;;;14.70;6.20;;;;;;;2.61;47.90;99851.91;5036597;28;20077;-76
2022/01/21 10:47:06;;;;;;;13.25;7.05;;;;;;;2.56;47.64;99859.97;5040167;28;20593;-76
2022/01/21 10:49:35;;;;;;;14.55;6.07;;;;;;;2.49;47.98;99856.78;5038484;28;20080;-78
2022/01/21 10:52:03;;;;;;;10.82;6.72;;;;;;;2.46;47.46;99856.91;5037154;28;20053;-76
2022/01/21 10:54:31;;;;;;;14.95;5.95;;;;;;;2.55;47.79;99854.81;5032953;28;20088;-76
2022/01/21 10:57:08;;;;;;;10.30;5.57;;;;;;;2.47;47.38;99842.97;5034534;28;20220;-76
2022/01/21 11:00:09;;;;;;;10.80;4.85;;;;;;;2.56;47.55;99828.69;5047938;28;20522;-81
2022/01/21 11:02:41;;;;;;;7.45;4.28;;;;;;;2.68;47.51;99845.50;5050702;28;20059;-77
2022/01/21 11:05:12;;;;;;;12.15;6.55;;;;;;;2.48;47.62;99834.25;5050181;28;20124;-77
2022/01/21 11:08:02;;;;;;;7.80;4.18;;;;;;;2.70;47.54;99843.66;5047106;28;20048;-79
2022/01/21 11:10:42;;;;;;;7.63;4.20;;;;;;;2.87;47.13;99846.34;5048913;28;20084;-77
2022/01/21 11:13:37;;;;;;;9.32;5.05;;;;;;;2.78;47.14;99854.59;5047515;28;20500;-79
2022/01/21 11:16:20;;;;;;;7.65;4.45;;;;;;;2.71;47.30;99844.53;5044769;28;20049;-78
2022/01/21 11:19:05;;;;;;;10.93;4.40;;;;;;;2.70;46.91;99842.84;5045026;28;20136;-78
2022/01/21 11:21:51;;;;;;;19.45;9.30;;;;;;;2.60;46.82;99847.63;5042767;28;20505;-78
2022/01/21 11:24:19;;;;;;;;;;;;;;;2.82;46.79;99850.94;5045117;28;20108;-77
2022/01/21 11:27:06;;;;;;;15.38;7.18;;;;;;;2.62;46.74;99851.00;5043107;28;19984;-74
2022/01/21 11:29:34;;;;;;;11.40;6.40;;;;;;;2.58;46.81;99846.88;5047689;28;20659;-80
2022/01/21 11:32:05;;;;;;;13.48;4.75;;;;;;;2.59;46.77;99835.50;5038788;28;20837;-81
2022/01/21 11:34:33;;;;;;;10.07;4.50;;;;;;;2.64;46.73;99844.81;5047302;28;20049;-76
2022/01/21 11:37:00;;;;;;;9.25;4.13;;;;;;;2.76;46.72;99851.22;5059081;28;20068;-81
2022/01/21 11:39:32;;;;;;;10.52;5.88;;;;;;;2.77;46.39;99845.06;5063787;28;20063;-80
2022/01/21 11:42:02;;;;;;;11.48;5.50;;;;;;;2.80;46.39;99850.16;5064553;28;20060;-79
2022/01/21 11:44:30;;;;;;;13.13;7.57;;;;;;;2.80;46.35;99844.09;5067084;28;20075;-76
2022/01/21 11:47:14;;;;;;;6.75;4.15;;;;;;;2.78;45.99;99844.16;5066903;28;20048;-75
2022/01/21 11:49:56;;;;;;;11.90;6.32;;;;;;;2.78;46.01;99838.13;5065756;28;20045;-77
2022/01/21 11:52:23;;;;;;;8.93;4.80;;;;;;;2.72;46.12;99831.44;5065357;28;20049;-78
2022/01/21 11:54:51;;;;;;;11.27;5.25;;;;;;;2.70;45.68;99825.41;5050209;28;20071;-75
2022/01/21 11:57:29;;;;;;;10.75;6.38;;;;;;;2.78;46.00;99835.50;5048540;28;20132;-78
2022/01/21 12:00:05;;;;;;;11.38;6.53;;;;;;;2.83;45.48;99839.59;5037300;28;20101;-79
2022/01/21 12:02:34;;;;;;;11.63;5.20;;;;;;;2.81;45.67;99844.03;5016201;28;20445;-75
2022/01/21 12:05:06;;;;;;;10.25;4.50;;;;;;;2.74;45.53;99833.94;5034213;28;20057;-74
2022/01/21 12:07:59;;;;;;;7.78;4.95;;;;;;;2.71;45.63;99839.31;5033197;28;20255;-80
2022/01/21 12:10:37;;;;;;;8.60;4.82;;;;;;;2.72;45.74;99841.00;5032049;28;20071;-76
2022/01/21 12:13:17;;;;;;;9.32;4.35;;;;;;;2.67;45.30;99838.63;5032244;28;20241;-76
2022/01/21 12:19:23;;;;;;;9.65;4.22;;;;;;;2.73;45.38;99840.94;4986805;28;20089;-79
2022/01/21 12:21:54;;;;;;;11.80;5.72;;;;;;;2.71;45.63;99844.53;4987378;28;20066;-74
2022/01/21 12:24:47;;;;;;;10.07;4.72;;;;;;;2.72;45.22;99847.06;4985942;28;20038;-78
2022/01/21 12:27:14;;;;;;;11.52;4.57;;;;;;;2.72;45.31;99831.44;4908828;29;20618;-80
2022/01/21 12:29:44;;;;;;;12.70;6.60;;;;;;;2.63;45.31;99840.53;4894093;29;20066;-81
2022/01/21 12:32:24;;;;;;;9.25;4.97;;;;;;;2.60;45.60;99847.63;4907606;29;20052;-77
2022/01/21 12:35:11;;;;;;;11.63;6.85;;;;;;;2.64;45.62;99849.19;4909290;29;20250;-76
2022/01/21 12:41:05;;;;;;;12.55;7.88;;;;;;;2.71;45.36;99850.59;4906818;29;20078;-78